createdAt,value
2023-04-05T00:00:54.590Z,99499.56
2023-04-05T00:03:22.721Z,99495.38
2023-04-05T00:05:50.382Z,99495.19
2023-04-05T00:08:34.362Z,99495.88
2023-04-05T00:11:01.509Z,99496.00
2023-04-05T00:13:28.799Z,99491.69
2023-04-05T00:15:58.496Z,99491.50
2023-04-05T00:18:26.369Z,99494.97
2023-04-05T00:20:54.208Z,99487.41
2023-04-05T00:23:21.992Z,99492.78
2023-04-05T00:25:50.189Z,99495.28
2023-04-05T00:28:17.846Z,99493.47
2023-04-05T00:30:45.186Z,99484.94
2023-04-05T00:33:13.995Z,99484.72
2023-04-05T00:35:41.514Z,99470.69
2023-04-05T00:38:09.174Z,99469.09
2023-04-05T00:40:37.637Z,99474.19
2023-04-05T00:43:05.161Z,99464.72
2023-04-05T00:45:32.824Z,99480.47
2023-04-05T00:48:00.858Z,99488.22
2023-04-05T00:50:32.065Z,99489.06
2023-04-05T00:52:59.393Z,99490.81
2023-04-05T00:55:27.873Z,99482.00
2023-04-05T00:57:56.207Z,99478.69
2023-04-05T01:00:23.743Z,99475.94
2023-04-05T01:02:58.526Z,99486.34
2023-04-05T01:05:35.110Z,99473.25
2023-04-05T01:08:12.529Z,99470.56
2023-04-05T01:10:44.933Z,99468.00
2023-04-05T01:13:12.514Z,99460.22
2023-04-05T01:15:39.848Z,99450.59
2023-04-05T01:18:09.845Z,99445.38
2023-04-05T01:20:46.442Z,99438.44
2023-04-05T01:23:44.243Z,99435.16
2023-04-05T01:26:28.626Z,99438.50
2023-04-05T01:29:33.515Z,99441.06
2023-04-05T01:32:26.187Z,99425.44
2023-04-05T01:35:10.030Z,99424.75
2023-04-05T01:37:39.119Z,99408.41
2023-04-05T01:40:08.902Z,99417.81
2023-04-05T01:42:36.391Z,99414.31
2023-04-05T01:45:03.768Z,99410.81
2023-04-05T01:47:32.818Z,99418.16
2023-04-05T01:50:00.132Z,99411.88
2023-04-05T01:52:27.488Z,99399.56
2023-04-05T01:54:54.740Z,99405.59
2023-04-05T01:57:21.969Z,99402.03
2023-04-05T01:59:49.430Z,99402.34
2023-04-05T02:02:18.082Z,99399.84
2023-04-05T02:04:45.848Z,99410.16
2023-04-05T02:07:13.132Z,99408.28
2023-04-05T02:09:41.978Z,99406.69
2023-04-05T02:12:09.440Z,99404.88
2023-04-05T02:14:38.626Z,99405.56
2023-04-05T02:17:06.033Z,99396.84
2023-04-05T02:19:41.251Z,99395.13
2023-04-05T02:22:09.637Z,99396.06
2023-04-05T02:24:37.319Z,99393.31
2023-04-05T02:27:04.796Z,99390.06
2023-04-05T02:29:32.302Z,99394.38
2023-04-05T02:31:59.675Z,99394.22
2023-04-05T02:34:27.582Z,99387.34
2023-04-05T02:36:54.803Z,99398.78
2023-04-05T02:39:22.129Z,99388.31
2023-04-05T02:41:49.212Z,99391.75
2023-04-05T02:44:17.414Z,99384.84
2023-04-05T02:46:44.565Z,99383.88
2023-04-05T02:49:12.258Z,99384.69
2023-04-05T02:51:39.611Z,99388.19
2023-04-05T02:54:09.955Z,99395.06
2023-04-05T02:56:37.475Z,99394.22
2023-04-05T02:59:11.235Z,99389.03
2023-04-05T03:01:38.517Z,99385.41
2023-04-05T03:04:06.633Z,99390.84
2023-04-05T03:06:34.227Z,99391.72
2023-04-05T03:09:04.864Z,99393.31
2023-04-05T03:11:34.076Z,99399.47
2023-04-05T03:14:01.893Z,99394.22
2023-04-05T03:16:43.362Z,99394.28
2023-04-05T03:19:31.390Z,99399.56
2023-04-05T03:22:10.531Z,99401.28
2023-04-05T03:24:38.927Z,99403.13
2023-04-05T03:27:09.972Z,99404.75
2023-04-05T03:29:55.684Z,99409.00
2023-04-05T03:32:23.384Z,99406.47
2023-04-05T03:34:58.230Z,99411.84
2023-04-05T03:37:25.653Z,99408.28
2023-04-05T03:40:00.880Z,99404.91
2023-04-05T03:42:28.373Z,99410.84
2023-04-05T03:44:56.199Z,99403.81
2023-04-05T03:47:23.561Z,99395.97
2023-04-05T03:49:52.666Z,99396.06
2023-04-05T03:52:20.273Z,99395.97
2023-04-05T03:54:48.160Z,99393.31
2023-04-05T03:57:21.459Z,99398.47
2023-04-05T03:59:51.223Z,99397.00
2023-04-05T04:02:18.918Z,99393.38
2023-04-05T04:04:47.358Z,99385.56
2023-04-05T04:07:15.700Z,99385.63
2023-04-05T04:09:44.494Z,99379.50
2023-04-05T04:12:13.248Z,99382.97
2023-04-05T04:14:49.674Z,99381.22
2023-04-05T04:17:46.407Z,99385.50
2023-04-05T04:20:29.105Z,99381.06
2023-04-05T04:23:10.424Z,99387.25
2023-04-05T04:25:56.618Z,99381.16
2023-04-05T04:28:44.136Z,99378.72
2023-04-05T04:31:40.983Z,99381.22
2023-04-05T04:34:26.988Z,99388.09
2023-04-05T04:37:23.093Z,99387.34
2023-04-05T04:40:11.399Z,99382.03
2023-04-05T04:42:59.207Z,99382.03
2023-04-05T04:45:56.053Z,99381.16
2023-04-05T04:48:54.500Z,99372.47
2023-04-05T04:51:35.055Z,99382.94
2023-04-05T04:54:03.057Z,99380.25
2023-04-05T04:56:30.882Z,99383.00
2023-04-05T04:59:00.535Z,99379.63
2023-04-05T05:01:28.594Z,99382.22
2023-04-05T05:03:57.275Z,99387.28
2023-04-05T05:06:34.736Z,99387.22
2023-04-05T05:09:02.806Z,99384.81
2023-04-05T05:11:33.533Z,99379.50
2023-04-05T05:14:02.070Z,99381.41
2023-04-05T05:16:29.767Z,99376.00
2023-04-05T05:18:57.233Z,99382.88
2023-04-05T05:21:28.228Z,99380.28
2023-04-05T05:24:01.133Z,99380.41
2023-04-05T05:26:28.633Z,99383.91
2023-04-05T05:28:56.880Z,99368.13
2023-04-05T05:31:29.748Z,99369.94
2023-04-05T05:33:57.579Z,99368.88
2023-04-05T05:36:26.121Z,99367.06
2023-04-05T05:38:54.982Z,99360.13
2023-04-05T05:41:22.616Z,99350.63
2023-04-05T05:43:50.028Z,99350.63
2023-04-05T05:46:18.428Z,99355.84
2023-04-05T05:48:47.592Z,99362.03
2023-04-05T05:51:15.059Z,99362.84
2023-04-05T05:53:42.476Z,99364.47
2023-04-05T05:56:10.494Z,99362.69
2023-04-05T05:58:39.499Z,99366.16
2023-04-05T06:01:08.155Z,99358.28
2023-04-05T06:03:36.036Z,99354.72
2023-04-05T06:06:06.192Z,99360.16
2023-04-05T06:08:33.748Z,99367.00
2023-04-05T06:11:01.878Z,99364.38
2023-04-05T06:13:29.263Z,99363.50
2023-04-05T06:15:57.539Z,99366.22
2023-04-05T06:18:24.930Z,99361.78
2023-04-05T06:20:52.121Z,99360.03
2023-04-05T06:23:20.057Z,99367.78
2023-04-05T06:25:48.966Z,99373.84
2023-04-05T06:28:17.306Z,99368.41
2023-04-05T06:30:45.320Z,99362.44
2023-04-05T06:33:13.182Z,99365.78
2023-04-05T06:35:41.003Z,99362.38
2023-04-05T06:38:09.023Z,99351.09
2023-04-05T06:40:38.833Z,99356.38
2023-04-05T06:43:06.913Z,99351.13
2023-04-05T06:45:34.361Z,99359.66
2023-04-05T06:48:03.187Z,99347.44
2023-04-05T06:50:32.253Z,99356.03
2023-04-05T06:53:01.034Z,99353.47
2023-04-05T06:55:29.832Z,99354.34
2023-04-05T06:57:57.801Z,99360.38
2023-04-05T07:00:26.311Z,99346.53
2023-04-05T07:02:54.845Z,99338.59
2023-04-05T07:05:22.689Z,99331.53
2023-04-05T07:07:50.181Z,99335.88
2023-04-05T07:10:18.761Z,99336.69
2023-04-05T07:12:46.414Z,99333.00
2023-04-05T07:15:17.745Z,99335.81
2023-04-05T07:17:46.037Z,99338.22
2023-04-05T07:20:14.858Z,99351.25
2023-04-05T07:22:42.446Z,99348.63
2023-04-05T07:25:10.698Z,99344.38
2023-04-05T07:27:39.954Z,99352.00
2023-04-05T07:30:09.269Z,99346.06
2023-04-05T07:32:37.007Z,99337.31
2023-04-05T07:35:05.193Z,99342.44
2023-04-05T07:37:33.130Z,99340.69
2023-04-05T07:40:01.034Z,99331.94
2023-04-05T07:42:29.412Z,99332.78
2023-04-05T07:44:58.877Z,99332.81
2023-04-05T07:47:26.296Z,99339.75
2023-04-05T07:49:54.049Z,99343.31
2023-04-05T07:52:23.167Z,99339.16
2023-04-05T07:54:51.126Z,99337.44
2023-04-05T07:57:20.060Z,99340.88
2023-04-05T07:59:51.303Z,99335.38
2023-04-05T08:02:18.614Z,99342.59
2023-04-05T08:04:47.219Z,99344.06
2023-04-05T08:07:14.664Z,99340.59
2023-04-05T08:09:42.510Z,99346.66
2023-04-05T08:12:11.968Z,99339.91
2023-04-05T08:14:40.628Z,99336.31
2023-04-05T08:17:07.893Z,99339.13
2023-04-05T08:19:35.326Z,99335.66
2023-04-05T08:22:02.962Z,99320.28
2023-04-05T08:24:30.776Z,99326.81
2023-04-05T08:26:58.707Z,99334.03
2023-04-05T08:29:26.690Z,99325.22
2023-04-05T08:31:58.085Z,99331.91
2023-04-05T08:34:25.795Z,99337.25
2023-04-05T08:36:53.109Z,99334.44
2023-04-05T08:39:20.720Z,99334.34
2023-04-05T08:41:59.790Z,99342.41
2023-04-05T08:44:31.775Z,99347.19
2023-04-05T08:47:00.723Z,99349.81
2023-04-05T08:49:28.865Z,99340.09
2023-04-05T08:51:57.198Z,99339.09
2023-04-05T08:54:24.687Z,99343.53
2023-04-05T08:56:55.088Z,99330.50
2023-04-05T08:59:23.448Z,99327.63
2023-04-05T09:01:52.968Z,99335.59
2023-04-05T09:04:24.734Z,99324.84
2023-04-05T09:06:54.744Z,99328.16
2023-04-05T09:09:24.685Z,99323.78
2023-04-05T09:11:53.318Z,99327.00
2023-04-05T09:14:22.784Z,99320.75
2023-04-05T09:16:51.201Z,99321.84
2023-04-05T09:19:19.043Z,99314.56
2023-04-05T09:22:04.917Z,99313.31
2023-04-05T09:24:42.648Z,99318.94
2023-04-05T09:27:15.449Z,99316.41
2023-04-05T09:29:47.248Z,99306.59
2023-04-05T09:32:18.573Z,99315.19
2023-04-05T09:34:46.620Z,99303.19
2023-04-05T09:37:24.032Z,99313.94
2023-04-05T09:40:04.641Z,99305.66
2023-04-05T09:42:46.812Z,99302.00
2023-04-05T09:45:16.476Z,99304.34
2023-04-05T09:48:04.918Z,99309.59
2023-04-05T09:50:33.003Z,99307.31
2023-04-05T09:53:18.818Z,99309.31
2023-04-05T09:55:51.140Z,99298.69
2023-04-05T09:58:24.603Z,99300.91
2023-04-05T10:01:06.221Z,99290.16
2023-04-05T10:03:53.425Z,99292.53
2023-04-05T10:06:22.998Z,99286.78
2023-04-05T10:08:50.961Z,99281.38
2023-04-05T10:11:21.896Z,99283.16
2023-04-05T10:13:51.584Z,99295.38
2023-04-05T10:16:24.040Z,99305.25
2023-04-05T10:18:53.307Z,99305.09
2023-04-05T10:21:24.098Z,99302.00
2023-04-05T10:24:20.240Z,99291.25
2023-04-05T10:27:16.993Z,99289.59
2023-04-05T10:30:13.387Z,99292.50
2023-04-05T10:33:12.710Z,99291.94
2023-04-05T10:36:06.291Z,99286.97
2023-04-05T10:38:44.672Z,99291.38
2023-04-05T10:41:17.013Z,99290.84
2023-04-05T10:43:46.555Z,99292.81
2023-04-05T10:46:24.767Z,99298.97
2023-04-05T10:49:10.398Z,99294.28
2023-04-05T10:51:39.345Z,99290.94
2023-04-05T10:54:14.489Z,99296.56
2023-04-05T10:56:42.445Z,99299.66
2023-04-05T10:59:12.555Z,99295.63
2023-04-05T11:01:43.424Z,99297.94
2023-04-05T11:04:15.849Z,99296.25
2023-04-05T11:06:48.303Z,99298.38
2023-04-05T11:09:23.946Z,99294.00
2023-04-05T11:11:55.391Z,99296.09
2023-04-05T11:14:28.864Z,99295.75
2023-04-05T11:16:57.183Z,99308.00
2023-04-05T11:19:44.856Z,99310.00
2023-04-05T11:22:19.382Z,99308.41
2023-04-05T11:24:57.708Z,99318.13
2023-04-05T11:27:30.697Z,99323.38
2023-04-05T11:30:00.354Z,99317.03
2023-04-05T11:32:42.146Z,99316.47
2023-04-05T11:35:26.881Z,99311.09
2023-04-05T11:37:57.279Z,99311.72
2023-04-05T11:40:36.347Z,99305.88
2023-04-05T11:43:10.532Z,99308.41
2023-04-05T11:45:40.341Z,99316.72
2023-04-05T11:48:09.038Z,99309.63
2023-04-05T11:50:38.784Z,99309.09
2023-04-05T11:53:18.577Z,99295.34
2023-04-05T11:55:48.854Z,99303.09
2023-04-05T11:58:17.780Z,99300.63
2023-04-05T12:00:46.983Z,99309.38
2023-04-05T12:03:16.762Z,99310.97
2023-04-05T12:05:49.736Z,99303.00
2023-04-05T12:08:18.816Z,99303.94
2023-04-05T12:10:55.440Z,99295.97
2023-04-05T12:13:30.285Z,99294.75
2023-04-05T12:16:00.319Z,99294.75
2023-04-05T12:18:32.293Z,99297.28
2023-04-05T12:21:05.733Z,99288.66
2023-04-05T12:23:38.728Z,99293.72
2023-04-05T12:26:08.951Z,99291.00
2023-04-05T12:28:56.748Z,99284.59
2023-04-05T12:31:40.414Z,99286.19
2023-04-05T12:34:09.367Z,99278.06
2023-04-05T12:36:37.997Z,99273.34
2023-04-05T12:39:10.732Z,99273.78
2023-04-05T12:41:42.341Z,99269.81
2023-04-05T12:44:16.142Z,99267.03
2023-04-05T12:46:48.098Z,99255.13
2023-04-05T12:49:19.259Z,99263.22
2023-04-05T12:51:48.237Z,99259.97
2023-04-05T12:54:24.700Z,99255.56
2023-04-05T12:56:56.564Z,99253.06
2023-04-05T12:59:24.878Z,99252.19
2023-04-05T13:02:16.850Z,99251.41
2023-04-05T13:04:44.886Z,99239.03
2023-04-05T13:07:12.127Z,99247.13
2023-04-05T13:09:40.306Z,99242.72
2023-04-05T13:12:08.179Z,99246.66
2023-04-05T13:14:35.914Z,99248.13
2023-04-05T13:17:03.737Z,99244.88
2023-04-05T13:19:31.218Z,99253.72
2023-04-05T13:21:58.579Z,99242.59
2023-04-05T13:24:26.334Z,99252.44
2023-04-05T13:26:54.632Z,99240.91
2023-04-05T13:29:22.991Z,99241.19
2023-04-05T13:31:51.161Z,99248.53
2023-04-05T13:34:19.607Z,99247.84
2023-04-05T13:36:49.904Z,99253.19
2023-04-05T13:39:17.777Z,99244.94
2023-04-05T13:41:45.812Z,99240.91
2023-04-05T13:44:13.750Z,99241.66
2023-04-05T13:46:41.763Z,99240.63
2023-04-05T13:49:09.068Z,99233.41
2023-04-05T13:51:41.965Z,99239.13
2023-04-05T13:54:12.048Z,99235.31
2023-04-05T13:56:39.922Z,99224.06
2023-04-05T13:59:09.395Z,99223.53
2023-04-05T14:01:38.522Z,99227.91
2023-04-05T14:04:07.185Z,99222.59
2023-04-05T14:06:35.539Z,99221.31
2023-04-05T14:09:05.959Z,99229.69
2023-04-05T14:11:33.898Z,99228.44
2023-04-05T14:14:01.789Z,99232.31
2023-04-05T14:16:29.727Z,99224.66
2023-04-05T14:18:58.692Z,99211.44
2023-04-05T14:21:27.937Z,99216.44
2023-04-05T14:23:58.644Z,99212.16
2023-04-05T14:26:29.227Z,99220.69
2023-04-05T14:28:58.434Z,99214.94
2023-04-05T14:31:26.385Z,99225.94
2023-04-05T14:33:54.033Z,99228.06
2023-04-05T14:36:22.370Z,99215.16
2023-04-05T14:38:51.273Z,99219.16
2023-04-05T14:41:19.797Z,99210.56
2023-04-05T14:43:49.277Z,99207.81
2023-04-05T14:46:17.959Z,99215.81
2023-04-05T14:48:46.537Z,99204.53
2023-04-05T14:51:14.301Z,99207.25
2023-04-05T14:53:44.650Z,99208.75
2023-04-05T14:56:14.699Z,99205.69
2023-04-05T14:58:44.413Z,99217.44
2023-04-05T15:01:14.501Z,99215.28
2023-04-05T15:03:43.618Z,99216.72
2023-04-05T15:06:11.166Z,99223.25
2023-04-05T15:08:38.388Z,99229.44
2023-04-05T15:11:06.220Z,99231.53
2023-04-05T15:13:34.818Z,99225.78
2023-04-05T15:16:04.256Z,99231.56
2023-04-05T15:18:32.391Z,99237.16
2023-04-05T15:21:03.621Z,99230.72
2023-04-05T15:23:31.766Z,99239.00
2023-04-05T15:26:00.034Z,99241.41
2023-04-05T15:28:27.866Z,99250.34
2023-04-05T15:30:57.946Z,99246.47
2023-04-05T15:33:25.760Z,99229.81
2023-04-05T15:35:53.751Z,99235.56
2023-04-05T15:38:22.017Z,99227.28
2023-04-05T15:40:52.600Z,99233.94
2023-04-05T15:43:22.062Z,99239.88
2023-04-05T15:45:49.869Z,99232.72
2023-04-05T15:48:17.651Z,99220.31
2023-04-05T15:50:45.762Z,99217.41
2023-04-05T15:53:13.712Z,99227.19
2023-04-05T15:55:42.067Z,99221.28
2023-04-05T15:58:10.914Z,99230.44
2023-04-05T16:00:39.520Z,99233.91
2023-04-05T16:03:07.731Z,99236.94
2023-04-05T16:05:36.466Z,99233.34
2023-04-05T16:08:05.088Z,99223.03
2023-04-05T16:10:33.400Z,99213.38
2023-04-05T16:13:01.577Z,99208.41
2023-04-05T16:15:29.620Z,99211.72
2023-04-05T16:18:01.439Z,99226.22
2023-04-05T16:20:31.291Z,99226.81
2023-04-05T16:23:03.104Z,99230.50
2023-04-05T16:25:31.481Z,99227.78
2023-04-05T16:28:00.001Z,99230.28
2023-04-05T16:30:27.587Z,99227.88
2023-04-05T16:32:55.615Z,99211.06
2023-04-05T16:35:23.594Z,99198.03
2023-04-05T16:37:51.671Z,99207.09
2023-04-05T16:40:19.877Z,99212.19
2023-04-05T16:42:47.380Z,99218.13
2023-04-05T16:45:14.593Z,99218.09
2023-04-05T16:47:42.738Z,99221.47
2023-04-05T16:50:11.028Z,99226.72
2023-04-05T16:52:38.478Z,99230.94
2023-04-05T16:55:06.872Z,99232.16
2023-04-05T16:57:34.407Z,99225.88
2023-04-05T17:00:01.960Z,99220.41
2023-04-05T17:02:29.194Z,99230.19
2023-04-05T17:04:56.465Z,99232.91
2023-04-05T17:07:23.791Z,99239.41
2023-04-05T17:09:51.314Z,99235.66
2023-04-05T17:12:18.789Z,99227.63
2023-04-05T17:14:46.265Z,99247.66
2023-04-05T17:17:13.679Z,99235.75
2023-04-05T17:19:41.371Z,99241.88
2023-04-05T17:22:08.570Z,99241.50
2023-04-05T17:24:36.992Z,99240.47
2023-04-05T17:27:05.058Z,99244.97
2023-04-05T17:29:32.380Z,99250.06
2023-04-05T17:31:59.637Z,99247.66
2023-04-05T17:34:27.367Z,99250.88
2023-04-05T17:36:54.369Z,99244.88
2023-04-05T17:39:22.021Z,99246.59
2023-04-05T17:41:51.268Z,99244.97
2023-04-05T17:44:20.375Z,99253.06
2023-04-05T17:47:01.291Z,99248.78
2023-04-05T17:49:36.817Z,99257.63
2023-04-05T17:52:05.205Z,99253.81
2023-04-05T17:54:37.246Z,99247.44
2023-04-05T17:57:07.335Z,99257.06
2023-04-05T17:59:35.949Z,99256.13
2023-04-05T18:02:03.096Z,99248.44
2023-04-05T18:04:30.499Z,99253.53
2023-04-05T18:07:00.139Z,99241.88
2023-04-05T18:09:28.332Z,99252.44
2023-04-05T18:11:56.279Z,99237.56
2023-04-05T18:14:23.434Z,99251.53
2023-04-05T18:16:50.852Z,99246.25
2023-04-05T18:19:18.296Z,99246.97
2023-04-05T18:21:46.659Z,99250.41
2023-04-05T18:24:14.503Z,99241.50
2023-04-05T18:26:42.064Z,99246.88
2023-04-05T18:29:09.590Z,99241.56
2023-04-05T18:31:37.441Z,99229.97
2023-04-05T18:34:07.869Z,99228.34
2023-04-05T18:36:36.528Z,99231.25
2023-04-05T18:39:04.129Z,99220.69
2023-04-05T18:41:32.246Z,99225.00
2023-04-05T18:43:59.609Z,99212.69
2023-04-05T18:46:27.052Z,99210.09
2023-04-05T18:48:55.131Z,99219.00
2023-04-05T18:51:23.961Z,99213.41
2023-04-05T18:53:51.587Z,99210.69
2023-04-05T18:56:19.080Z,99212.78
2023-04-05T18:58:46.759Z,99206.53
2023-04-05T19:01:16.648Z,99196.38
2023-04-05T19:03:45.251Z,99197.06
2023-04-05T19:06:13.431Z,99190.88
2023-04-05T19:08:41.647Z,99198.41
2023-04-05T19:11:13.097Z,99190.69
2023-04-05T19:13:43.307Z,99192.34
2023-04-05T19:16:10.826Z,99189.06
2023-04-05T19:18:39.131Z,99189.94
2023-04-05T19:21:08.740Z,99188.22
2023-04-05T19:23:36.986Z,99177.00
2023-04-05T19:26:04.537Z,99194.41
2023-04-05T19:28:32.566Z,99194.16
2023-04-05T19:30:59.885Z,99189.56
2023-04-05T19:33:30.055Z,99185.91
2023-04-05T19:35:58.654Z,99177.69
2023-04-05T19:38:26.339Z,99179.16
2023-04-05T19:40:53.908Z,99179.13
2023-04-05T19:43:23.740Z,99178.50
2023-04-05T19:45:59.736Z,99175.19
2023-04-05T19:48:37.333Z,99170.19
2023-04-05T19:51:07.247Z,99171.13
2023-04-05T19:53:50.649Z,99166.44
2023-04-05T19:56:28.723Z,99168.25
2023-04-05T19:59:01.510Z,99166.13
2023-04-05T20:01:39.262Z,99161.81
2023-04-05T20:04:14.278Z,99148.53
2023-04-05T20:06:44.404Z,99151.75
2023-04-05T20:09:15.362Z,99147.59
2023-04-05T20:11:47.176Z,99152.03
2023-04-05T20:14:15.024Z,99142.88
2023-04-05T20:16:43.155Z,99150.66
2023-04-05T20:19:11.726Z,99131.63
2023-04-05T20:21:39.586Z,99138.34
2023-04-05T20:24:12.630Z,99133.78
2023-04-05T20:26:40.128Z,99119.78
2023-04-05T20:29:08.641Z,99121.41
2023-04-05T20:31:39.815Z,99124.28
2023-04-05T20:34:10.198Z,99117.09
2023-04-05T20:36:47.802Z,99117.84
2023-04-05T20:39:15.716Z,99104.66
2023-04-05T20:41:43.448Z,99109.69
2023-04-05T20:44:10.796Z,99099.91
2023-04-05T20:46:41.706Z,99095.72
2023-04-05T20:49:09.511Z,99097.41
2023-04-05T20:51:36.864Z,99090.22
2023-04-05T20:54:04.569Z,99086.09
2023-04-05T20:56:31.577Z,99086.16
2023-04-05T20:58:58.948Z,99090.84
2023-04-05T21:01:27.327Z,99087.19
2023-04-05T21:03:54.616Z,99075.91
2023-04-05T21:06:21.944Z,99078.00
2023-04-05T21:08:49.640Z,99062.81
2023-04-05T21:11:16.864Z,99067.38
2023-04-05T21:13:44.101Z,99056.13
2023-04-05T21:16:11.706Z,99063.19
2023-04-05T21:18:39.350Z,99049.31
2023-04-05T21:21:07.417Z,99049.06
2023-04-05T21:23:35.572Z,99044.44
2023-04-05T21:26:04.898Z,99038.91
2023-04-05T21:28:32.937Z,99040.47
2023-04-05T21:31:00.565Z,99033.69
2023-04-05T21:33:27.939Z,99041.00
2023-04-05T21:35:55.457Z,99031.28
2023-04-05T21:38:22.730Z,99034.03
2023-04-05T21:40:51.040Z,99028.44
2023-04-05T21:43:18.618Z,99032.59
2023-04-05T21:45:46.838Z,99019.16
2023-04-05T21:48:13.869Z,99021.28
2023-04-05T21:50:41.547Z,99023.63
2023-04-05T21:53:10.690Z,99022.13
2023-04-05T21:55:38.239Z,99012.44
2023-04-05T21:58:05.614Z,99018.06
2023-04-05T22:00:33.039Z,99014.88
2023-04-05T22:03:00.693Z,99015.50
2023-04-05T22:05:37.459Z,99001.88
2023-04-05T22:08:10.261Z,99001.56
2023-04-05T22:10:38.610Z,99015.25
2023-04-05T22:13:06.131Z,99016.41
2023-04-05T22:15:33.581Z,99021.78
2023-04-05T22:18:02.419Z,99013.84
2023-04-05T22:20:30.092Z,99010.13
2023-04-05T22:22:57.342Z,99004.28
2023-04-05T22:25:26.463Z,99005.84
2023-04-05T22:27:59.748Z,99002.50
2023-04-05T22:30:37.204Z,98990.75
2023-04-05T22:33:10.690Z,98986.84
2023-04-05T22:35:38.584Z,98986.63
2023-04-05T22:38:06.165Z,98986.06
2023-04-05T22:40:33.420Z,98979.63
2023-04-05T22:43:00.861Z,98978.56
2023-04-05T22:45:29.073Z,98972.88
2023-04-05T22:47:57.733Z,98971.28
2023-04-05T22:50:25.063Z,98976.72
2023-04-05T22:52:52.506Z,98969.56
2023-04-05T22:55:20.027Z,98978.06
2023-04-05T22:57:47.420Z,98971.16
2023-04-05T23:00:15.356Z,98973.47
2023-04-05T23:02:43.831Z,98962.78
2023-04-05T23:05:13.552Z,98975.56
2023-04-05T23:07:41.220Z,98963.63
2023-04-05T23:10:08.708Z,98975.91
2023-04-05T23:12:36.397Z,98977.38
2023-04-05T23:15:03.878Z,98968.09
2023-04-05T23:17:32.623Z,98968.28
2023-04-05T23:20:00.170Z,98960.53
2023-04-05T23:22:30.903Z,98954.41
2023-04-05T23:25:02.585Z,98956.72
2023-04-05T23:27:30.047Z,98956.53
2023-04-05T23:29:57.741Z,98940.69
2023-04-05T23:32:25.710Z,98945.75
2023-04-05T23:34:53.111Z,98944.19
2023-04-05T23:37:20.401Z,98948.09
2023-04-05T23:39:47.585Z,98935.84
2023-04-05T23:42:16.397Z,98945.47
2023-04-05T23:44:43.422Z,98957.34
2023-04-05T23:47:11.096Z,98941.75
2023-04-05T23:49:38.303Z,98938.94
2023-04-05T23:52:05.948Z,98939.66
2023-04-05T23:54:33.113Z,98926.38
2023-04-05T23:57:00.200Z,98940.97
2023-04-05T23:59:27.309Z,98934.34
